sensor_id;sensor_type;location;lat;lon;timestamp;P1;durP1;ratioP1;P2;durP2;ratioP2
2458;SDS011;1241;50.920;6.936;2023-06-22T07:18:17;12.57;;;11.43;;
2458;SDS011;1241;50.920;6.936;2023-06-22T07:20:42;12.00;;;11.10;;
2458;SDS011;1241;50.920;6.936;2023-06-22T07:23:08;12.50;;;11.40;;
2458;SDS011;1241;50.920;6.936;2023-06-22T07:25:34;12.47;;;11.40;;
2458;SDS011;1241;50.920;6.936;2023-06-22T07:28:01;12.43;;;11.23;;
2458;SDS011;1241;50.920;6.936;2023-06-22T07:30:27;12.63;;;11.50;;
2458;SDS011;1241;50.920;6.936;2023-06-22T07:32:53;13.07;;;12.07;;
2458;SDS011;1241;50.920;6.936;2023-06-22T07:35:19;13.07;;;12.17;;
2458;SDS011;1241;50.920;6.936;2023-06-22T07:37:45;12.10;;;11.03;;
2458;SDS011;1241;50.920;6.936;2023-06-22T07:40:11;12.87;;;11.87;;
2458;SDS011;1241;50.920;6.936;2023-06-22T07:42:37;13.03;;;12.00;;
2458;SDS011;1241;50.920;6.936;2023-06-22T07:45:03;14.13;;;10.60;;
2458;SDS011;1241;50.920;6.936;2023-06-22T15:17:39;12.40;;;11.10;;
2458;SDS011;1241;50.920;6.936;2023-06-22T15:20:04;12.20;;;11.00;;
2458;SDS011;1241;50.920;6.936;2023-06-22T15:22:30;15.38;;;13.98;;
2458;SDS011;1241;50.920;6.936;2023-06-22T15:24:56;17.92;;;15.80;;
2458;SDS011;1241;50.920;6.936;2023-06-22T15:27:23;18.20;;;16.33;;
2458;SDS011;1241;50.920;6.936;2023-06-22T15:29:49;18.23;;;16.42;;
2458;SDS011;1241;50.920;6.936;2023-06-22T15:32:15;21.37;;;16.70;;
2458;SDS011;1241;50.920;6.936;2023-06-22T15:34:41;16.83;;;15.23;;
2458;SDS011;1241;50.920;6.936;2023-06-22T15:37:06;17.30;;;15.70;;
2458;SDS011;1241;50.920;6.936;2023-06-22T15:39:32;18.10;;;16.40;;
2458;SDS011;1241;50.920;6.936;2023-06-22T15:41:58;16.97;;;15.17;;
2458;SDS011;1241;50.920;6.936;2023-06-22T15:44:24;15.77;;;14.30;;
2458;SDS011;1241;50.920;6.936;2023-06-22T15:46:49;18.70;;;16.73;;
2458;SDS011;1241;50.920;6.936;2023-06-22T15:49:15;19.20;;;17.27;;
2458;SDS011;1241;50.920;6.936;2023-06-22T16:13:35;19.20;;;17.20;;
2458;SDS011;1241;50.920;6.936;2023-06-22T16:16:00;19.23;;;17.33;;
2458;SDS011;1241;50.920;6.936;2023-06-22T16:18:26;21.30;;;19.10;;
2458;SDS011;1241;50.920;6.936;2023-06-22T16:20:52;20.63;;;18.43;;
2458;SDS011;1241;50.920;6.936;2023-06-22T16:23:18;21.03;;;18.37;;
2458;SDS011;1241;50.920;6.936;2023-06-22T16:25:43;21.00;;;18.80;;
2458;SDS011;1241;50.920;6.936;2023-06-22T16:28:09;20.03;;;17.23;;
2458;SDS011;1241;50.920;6.936;2023-06-22T16:30:35;18.20;;;16.30;;
2458;SDS011;1241;50.920;6.936;2023-06-22T16:33:00;16.97;;;15.37;;
2458;SDS011;1241;50.920;6.936;2023-06-22T16:35:28;19.93;;;18.10;;
2458;SDS011;1241;50.920;6.936;2023-06-22T16:37:54;15.60;;;14.03;;
2458;SDS011;1241;50.920;6.936;2023-06-22T16:40:23;14.53;;;12.50;;
2458;SDS011;1241;50.920;6.936;2023-06-22T16:42:50;16.30;;;14.90;;
2458;SDS011;1241;50.920;6.936;2023-06-22T16:45:20;16.40;;;14.90;;
2458;SDS011;1241;50.920;6.936;2023-06-22T16:47:46;20.23;;;18.57;;
2458;SDS011;1241;50.920;6.936;2023-06-22T16:50:13;17.37;;;15.87;;
2458;SDS011;1241;50.920;6.936;2023-06-22T16:52:40;17.33;;;15.93;;
2458;SDS011;1241;50.920;6.936;2023-06-22T16:55:08;14.10;;;12.70;;
2458;SDS011;1241;50.920;6.936;2023-06-22T16:57:35;16.70;;;14.90;;
2458;SDS011;1241;50.920;6.936;2023-06-22T17:00:00;15.50;;;13.97;;
2458;SDS011;1241;50.920;6.936;2023-06-22T17:02:27;14.63;;;13.53;;
2458;SDS011;1241;50.920;6.936;2023-06-22T17:04:57;15.80;;;13.43;;
2458;SDS011;1241;50.920;6.936;2023-06-22T17:07:25;13.20;;;11.90;;
2458;SDS011;1241;50.920;6.936;2023-06-22T17:09:53;14.87;;;12.93;;
2458;SDS011;1241;50.920;6.936;2023-06-22T17:12:19;12.70;;;11.50;;
2458;SDS011;1241;50.920;6.936;2023-06-22T17:14:48;10.50;;;9.47;;
2458;SDS011;1241;50.920;6.936;2023-06-22T17:17:16;9.73;;;8.90;;
2458;SDS011;1241;50.920;6.936;2023-06-22T17:19:43;10.10;;;9.23;;
2458;SDS011;1241;50.920;6.936;2023-06-22T17:22:10;8.83;;;8.00;;
2458;SDS011;1241;50.920;6.936;2023-06-22T17:24:36;8.27;;;7.57;;
2458;SDS011;1241;50.920;6.936;2023-06-22T17:27:02;8.70;;;7.90;;
2458;SDS011;1241;50.920;6.936;2023-06-22T17:29:29;6.93;;;6.32;;
2458;SDS011;1241;50.920;6.936;2023-06-22T17:31:56;8.93;;;8.13;;
2458;SDS011;1241;50.920;6.936;2023-06-22T17:34:24;9.77;;;8.87;;
2458;SDS011;1241;50.920;6.936;2023-06-22T17:36:53;10.57;;;9.57;;
2458;SDS011;1241;50.920;6.936;2023-06-22T17:39:20;9.27;;;8.48;;
2458;SDS011;1241;50.920;6.936;2023-06-22T17:41:48;9.20;;;8.30;;
2458;SDS011;1241;50.920;6.936;2023-06-22T17:44:18;8.90;;;8.00;;
2458;SDS011;1241;50.920;6.936;2023-06-22T17:46:52;8.90;;;8.10;;
2458;SDS011;1241;50.920;6.936;2023-06-22T17:49:18;8.40;;;7.40;;
2458;SDS011;1241;50.920;6.936;2023-06-22T17:51:45;8.73;;;7.85;;
2458;SDS011;1241;50.920;6.936;2023-06-22T17:54:14;9.13;;;8.43;;
2458;SDS011;1241;50.920;6.936;2023-06-22T17:56:40;10.52;;;9.52;;
2458;SDS011;1241;50.920;6.936;2023-06-22T17:59:05;10.55;;;9.65;;
2458;SDS011;1241;50.920;6.936;2023-06-22T18:01:32;11.93;;;10.82;;
2458;SDS011;1241;50.920;6.936;2023-06-22T18:04:00;12.77;;;11.70;;
2458;SDS011;1241;50.920;6.936;2023-06-22T18:06:36;14.63;;;13.43;;
2458;SDS011;1241;50.920;6.936;2023-06-22T18:09:07;18.02;;;16.52;;
2458;SDS011;1241;50.920;6.936;2023-06-22T18:11:34;21.02;;;19.30;;
2458;SDS011;1241;50.920;6.936;2023-06-22T18:14:05;23.55;;;21.85;;
2458;SDS011;1241;50.920;6.936;2023-06-22T18:16:32;27.23;;;24.77;;
2458;SDS011;1241;50.920;6.936;2023-06-22T18:18:58;27.60;;;25.10;;
2458;SDS011;1241;50.920;6.936;2023-06-22T18:21:25;26.75;;;24.48;;
2458;SDS011;1241;50.920;6.936;2023-06-22T18:23:51;28.33;;;25.83;;
2458;SDS011;1241;50.920;6.936;2023-06-22T18:26:19;37.13;;;33.63;;
2458;SDS011;1241;50.920;6.936;2023-06-22T18:28:50;38.60;;;35.20;;
2458;SDS011;1241;50.920;6.936;2023-06-22T18:31:17;34.83;;;31.98;;
2458;SDS011;1241;50.920;6.936;2023-06-22T18:33:45;34.50;;;31.70;;
2458;SDS011;1241;50.920;6.936;2023-06-22T18:36:29;34.10;;;31.20;;
2458;SDS011;1241;50.920;6.936;2023-06-22T18:39:00;29.42;;;27.02;;
2458;SDS011;1241;50.920;6.936;2023-06-22T18:41:36;28.40;;;26.00;;
2458;SDS011;1241;50.920;6.936;2023-06-22T18:44:10;26.50;;;24.30;;
2458;SDS011;1241;50.920;6.936;2023-06-22T18:46:37;26.13;;;23.95;;
2458;SDS011;1241;50.920;6.936;2023-06-22T18:54:38;25.90;;;23.50;;
2458;SDS011;1241;50.920;6.936;2023-06-22T19:05:41;26.98;;;24.58;;
2458;SDS011;1241;50.920;6.936;2023-06-22T19:08:08;31.08;;;28.27;;
2458;SDS011;1241;50.920;6.936;2023-06-22T19:15:45;26.00;;;23.80;;
2458;SDS011;1241;50.920;6.936;2023-06-22T19:20:48;15.03;;;12.17;;
2458;SDS011;1241;50.920;6.936;2023-06-22T19:23:32;14.13;;;12.82;;
2458;SDS011;1241;50.920;6.936;2023-06-22T19:26:00;13.02;;;11.82;;
2458;SDS011;1241;50.920;6.936;2023-06-22T19:28:28;11.98;;;10.90;;
2458;SDS011;1241;50.920;6.936;2023-06-22T19:30:56;10.95;;;9.80;;
2458;SDS011;1241;50.920;6.936;2023-06-22T19:33:28;10.20;;;9.30;;
2458;SDS011;1241;50.920;6.936;2023-06-22T20:20:42;14.40;;;13.00;;
2458;SDS011;1241;50.920;6.936;2023-06-22T20:23:10;13.90;;;11.83;;
2458;SDS011;1241;50.920;6.936;2023-06-22T20:25:36;13.67;;;12.40;;
2458;SDS011;1241;50.920;6.936;2023-06-22T20:28:13;14.27;;;12.77;;
2458;SDS011;1241;50.920;6.936;2023-06-22T20:30:41;14.27;;;12.80;;
2458;SDS011;1241;50.920;6.936;2023-06-22T20:33:24;12.80;;;11.50;;
2458;SDS011;1241;50.920;6.936;2023-06-22T20:35:50;13.63;;;12.30;;
2458;SDS011;1241;50.920;6.936;2023-06-22T20:38:16;14.60;;;13.07;;
2458;SDS011;1241;50.920;6.936;2023-06-22T20:40:42;14.18;;;12.77;;
2458;SDS011;1241;50.920;6.936;2023-06-22T20:43:07;14.48;;;12.98;;
2458;SDS011;1241;50.920;6.936;2023-06-22T20:45:34;14.48;;;13.00;;
2458;SDS011;1241;50.920;6.936;2023-06-22T20:48:00;15.57;;;13.57;;
2458;SDS011;1241;50.920;6.936;2023-06-22T20:50:26;16.23;;;14.63;;
2458;SDS011;1241;50.920;6.936;2023-06-22T20:52:58;17.80;;;16.10;;
2458;SDS011;1241;50.920;6.936;2023-06-22T20:55:28;17.05;;;15.02;;
2458;SDS011;1241;50.920;6.936;2023-06-22T20:57:55;18.00;;;16.20;;
2458;SDS011;1241;50.920;6.936;2023-06-22T21:00:24;18.30;;;16.52;;
2458;SDS011;1241;50.920;6.936;2023-06-22T21:02:50;18.40;;;16.60;;
2458;SDS011;1241;50.920;6.936;2023-06-22T21:05:19;20.30;;;18.15;;
2458;SDS011;1241;50.920;6.936;2023-06-22T21:07:45;19.20;;;17.00;;
2458;SDS011;1241;50.920;6.936;2023-06-22T21:10:11;18.58;;;16.70;;
2458;SDS011;1241;50.920;6.936;2023-06-22T21:12:37;17.73;;;15.93;;
2458;SDS011;1241;50.920;6.936;2023-06-22T21:15:03;18.33;;;16.43;;
2458;SDS011;1241;50.920;6.936;2023-06-22T21:17:30;17.05;;;15.35;;
2458;SDS011;1241;50.920;6.936;2023-06-22T21:19:56;15.77;;;14.27;;
2458;SDS011;1241;50.920;6.936;2023-06-22T21:22:22;16.53;;;14.97;;
2458;SDS011;1241;50.920;6.936;2023-06-22T21:25:02;16.90;;;15.30;;
2458;SDS011;1241;50.920;6.936;2023-06-22T21:27:30;16.45;;;14.82;;
2458;SDS011;1241;50.920;6.936;2023-06-22T21:29:57;17.35;;;15.75;;
2458;SDS011;1241;50.920;6.936;2023-06-22T21:32:23;18.05;;;16.25;;
2458;SDS011;1241;50.920;6.936;2023-06-22T21:34:49;19.20;;;17.20;;
2458;SDS011;1241;50.920;6.936;2023-06-22T21:37:14;18.88;;;16.92;;
2458;SDS011;1241;50.920;6.936;2023-06-22T21:39:41;20.63;;;18.58;;
2458;SDS011;1241;50.920;6.936;2023-06-22T21:42:08;47.65;;;42.97;;
2458;SDS011;1241;50.920;6.936;2023-06-22T21:44:34;19.45;;;17.52;;
2458;SDS011;1241;50.920;6.936;2023-06-22T21:47:00;19.90;;;18.13;;
2458;SDS011;1241;50.920;6.936;2023-06-22T21:49:26;19.10;;;17.38;;
2458;SDS011;1241;50.920;6.936;2023-06-22T21:51:51;19.20;;;17.20;;
2458;SDS011;1241;50.920;6.936;2023-06-22T21:54:17;19.63;;;17.73;;
2458;SDS011;1241;50.920;6.936;2023-06-22T21:56:43;18.97;;;17.17;;
2458;SDS011;1241;50.920;6.936;2023-06-22T21:59:08;18.60;;;16.80;;
2458;SDS011;1241;50.920;6.936;2023-06-22T22:01:34;16.43;;;14.93;;
2458;SDS011;1241;50.920;6.936;2023-06-22T22:04:00;17.80;;;16.10;;
2458;SDS011;1241;50.920;6.936;2023-06-22T22:06:26;16.60;;;14.90;;
2458;SDS011;1241;50.920;6.936;2023-06-22T22:08:53;15.57;;;14.07;;
2458;SDS011;1241;50.920;6.936;2023-06-22T22:11:19;16.10;;;14.50;;
2458;SDS011;1241;50.920;6.936;2023-06-22T22:13:46;17.70;;;16.00;;
2458;SDS011;1241;50.920;6.936;2023-06-22T22:16:13;16.35;;;14.85;;
2458;SDS011;1241;50.920;6.936;2023-06-22T22:18:39;17.48;;;15.88;;
2458;SDS011;1241;50.920;6.936;2023-06-22T22:21:04;17.40;;;15.60;;
2458;SDS011;1241;50.920;6.936;2023-06-22T22:23:30;18.33;;;16.52;;
2458;SDS011;1241;50.920;6.936;2023-06-22T22:25:56;20.50;;;18.70;;
2458;SDS011;1241;50.920;6.936;2023-06-22T22:28:22;24.30;;;21.90;;
2458;SDS011;1241;50.920;6.936;2023-06-22T22:30:48;24.63;;;22.33;;
2458;SDS011;1241;50.920;6.936;2023-06-22T22:33:14;26.40;;;23.63;;
2458;SDS011;1241;50.920;6.936;2023-06-22T22:35:39;27.02;;;24.23;;
2458;SDS011;1241;50.920;6.936;2023-06-22T22:38:05;26.63;;;23.92;;
2458;SDS011;1241;50.920;6.936;2023-06-22T22:40:31;27.92;;;25.17;;
2458;SDS011;1241;50.920;6.936;2023-06-22T22:42:56;29.27;;;26.27;;
2458;SDS011;1241;50.920;6.936;2023-06-22T22:45:22;27.77;;;24.95;;
2458;SDS011;1241;50.920;6.936;2023-06-22T22:47:48;26.70;;;24.20;;
2458;SDS011;1241;50.920;6.936;2023-06-22T22:50:13;26.08;;;23.52;;
2458;SDS011;1241;50.920;6.936;2023-06-22T22:52:39;25.65;;;22.98;;
2458;SDS011;1241;50.920;6.936;2023-06-22T22:55:06;23.52;;;21.13;;
2458;SDS011;1241;50.920;6.936;2023-06-22T22:57:32;22.85;;;20.55;;
2458;SDS011;1241;50.920;6.936;2023-06-22T22:59:58;23.38;;;21.00;;
2458;SDS011;1241;50.920;6.936;2023-06-22T23:02:24;23.90;;;21.60;;
2458;SDS011;1241;50.920;6.936;2023-06-22T23:04:56;23.48;;;20.98;;
2458;SDS011;1241;50.920;6.936;2023-06-22T23:07:23;20.90;;;18.90;;
2458;SDS011;1241;50.920;6.936;2023-06-22T23:09:53;21.05;;;18.88;;
2458;SDS011;1241;50.920;6.936;2023-06-22T23:12:20;21.30;;;19.00;;
2458;SDS011;1241;50.920;6.936;2023-06-22T23:14:46;19.83;;;17.92;;
2458;SDS011;1241;50.920;6.936;2023-06-22T23:17:12;18.25;;;16.45;;
2458;SDS011;1241;50.920;6.936;2023-06-22T23:19:38;18.77;;;16.88;;
2458;SDS011;1241;50.920;6.936;2023-06-22T23:22:04;18.80;;;17.00;;
2458;SDS011;1241;50.920;6.936;2023-06-22T23:24:30;18.58;;;16.67;;
2458;SDS011;1241;50.920;6.936;2023-06-22T23:26:56;17.30;;;15.70;;
2458;SDS011;1241;50.920;6.936;2023-06-22T23:29:22;18.42;;;16.63;;
2458;SDS011;1241;50.920;6.936;2023-06-22T23:31:48;19.45;;;17.45;;
2458;SDS011;1241;50.920;6.936;2023-06-22T23:34:14;19.83;;;17.75;;
2458;SDS011;1241;50.920;6.936;2023-06-22T23:36:39;20.48;;;18.45;;
2458;SDS011;1241;50.920;6.936;2023-06-22T23:39:05;23.20;;;21.00;;
2458;SDS011;1241;50.920;6.936;2023-06-22T23:41:32;22.17;;;20.08;;
2458;SDS011;1241;50.920;6.936;2023-06-22T23:43:58;23.30;;;20.90;;
2458;SDS011;1241;50.920;6.936;2023-06-22T23:46:24;21.63;;;19.42;;
2458;SDS011;1241;50.920;6.936;2023-06-22T23:48:51;21.13;;;19.02;;
2458;SDS011;1241;50.920;6.936;2023-06-22T23:51:17;23.08;;;20.58;;
2458;SDS011;1241;50.920;6.936;2023-06-22T23:53:43;20.27;;;18.27;;
2458;SDS011;1241;50.920;6.936;2023-06-22T23:56:09;19.70;;;17.90;;
2458;SDS011;1241;50.920;6.936;2023-06-22T23:58:35;21.00;;;18.90;;
